Time;durP1;ratioP1;P1;durP2;ratioP2;P2;SDS_P1;SDS_P2;PMS_P1;PMS_P2;Temp;Humidity;BMP_temperature;BMP_pressure;BME280_temperature;BME280_humidity;BME280_pressure;Samples;Min_cycle;Max_cycle;Signal;HPM_P1;HPM_P2
2022/03/08 00:00:31;;;;;;;17.23;9.77;;;3.80;88.70;;;;;;7387034;19;20131;-71
2022/03/08 00:02:58;;;;;;;14.80;8.80;;;3.60;89.90;;;;;;7384598;19;20720;-72
2022/03/08 00:05:24;;;;;;;15.63;9.13;;;3.60;89.20;;;;;;7386372;19;20152;-72
2022/03/08 00:07:50;;;;;;;18.37;9.20;;;3.50;90.00;;;;;;7386097;19;20213;-72
2022/03/08 00:10:16;;;;;;;14.47;9.10;;;3.50;90.00;;;;;;7386331;19;20163;-72
2022/03/08 00:12:43;;;;;;;13.37;8.67;;;3.20;90.40;;;;;;7388050;19;20146;-72
2022/03/08 00:15:15;;;;;;;11.90;8.53;;;3.10;90.70;;;;;;7388899;19;20143;-72
2022/03/08 00:17:41;;;;;;;12.70;8.13;;;3.20;90.70;;;;;;7385749;19;20165;-72
2022/03/08 00:20:09;;;;;;;12.27;8.30;;;3.00;91.00;;;;;;7386011;19;20123;-73
2022/03/08 00:22:35;;;;;;;13.93;9.07;;;3.20;90.70;;;;;;7386933;19;20151;-72
2022/03/08 00:25:02;;;;;;;12.17;8.33;;;3.50;90.30;;;;;;7386320;19;20206;-71
2022/03/08 00:27:29;;;;;;;13.47;9.07;;;3.60;90.10;;;;;;7386479;19;20610;-71
2022/03/08 00:29:55;;;;;;;12.67;8.87;;;3.10;90.60;;;;;;7386294;19;20831;-72
2022/03/08 00:32:21;;;;;;;13.77;9.27;;;3.20;90.80;;;;;;7386009;19;20131;-72
2022/03/08 00:34:47;;;;;;;14.13;9.30;;;3.20;90.90;;;;;;7388527;19;20170;-73
2022/03/08 00:37:13;;;;;;;14.10;8.90;;;3.00;91.10;;;;;;7387211;19;20172;-72
2022/03/08 00:39:39;;;;;;;12.73;9.03;;;2.90;91.40;;;;;;7385476;19;20150;-72
2022/03/08 00:42:11;;;;;;;14.40;8.57;;;2.90;91.50;;;;;;7386582;19;20271;-72
2022/03/08 00:44:38;;;;;;;15.67;8.63;;;2.90;91.20;;;;;;7387275;19;20195;-72
2022/03/08 00:47:05;;;;;;;15.63;9.53;;;3.10;91.30;;;;;;7385346;19;20158;-73
2022/03/08 00:49:30;;;;;;;16.80;9.13;;;3.20;91.40;;;;;;7384725;19;20146;-71
2022/03/08 00:51:56;;;;;;;16.27;9.10;;;3.10;91.10;;;;;;7387396;19;20154;-72
2022/03/08 00:54:22;;;;;;;13.53;9.13;;;2.90;91.30;;;;;;7385257;19;20150;-72
2022/03/08 00:56:49;;;;;;;17.00;8.10;;;2.90;91.50;;;;;;7386624;19;20135;-71
2022/03/08 00:59:15;;;;;;;14.90;9.33;;;2.60;91.60;;;;;;7385417;19;20134;-71
2022/03/08 01:01:40;;;;;;;13.77;8.67;;;2.60;91.80;;;;;;7384034;19;20161;-71
2022/03/08 01:04:07;;;;;;;14.20;8.93;;;2.70;91.70;;;;;;7387044;19;20134;-71
2022/03/08 01:06:33;;;;;;;15.03;8.57;;;2.70;91.70;;;;;;7384668;19;20146;-72
2022/03/08 01:08:59;;;;;;;12.97;8.50;;;2.80;91.70;;;;;;7386818;19;20514;-70
2022/03/08 01:11:25;;;;;;;16.93;8.53;;;2.70;91.50;;;;;;7384702;19;20135;-72
2022/03/08 01:13:51;;;;;;;14.60;8.57;;;2.80;91.50;;;;;;7386671;19;20186;-71
2022/03/08 01:16:17;;;;;;;13.93;8.80;;;2.80;91.40;;;;;;7385157;19;20127;-72
2022/03/08 01:18:43;;;;;;;13.17;8.53;;;2.80;91.70;;;;;;7384728;19;20131;-71
2022/03/08 01:21:11;;;;;;;11.30;8.43;;;2.90;91.50;;;;;;7384265;19;20614;-72
2022/03/08 01:23:37;;;;;;;12.17;8.10;;;3.00;91.20;;;;;;7388605;19;20126;-73
2022/03/08 01:26:03;;;;;;;12.07;8.40;;;3.00;91.20;;;;;;7384398;19;20138;-71
2022/03/08 01:28:29;;;;;;;13.30;9.03;;;2.90;91.40;;;;;;7383555;19;20182;-72
2022/03/08 01:30:54;;;;;;;14.67;8.90;;;3.00;91.20;;;;;;7384448;19;20137;-72
2022/03/08 01:33:20;;;;;;;13.23;7.83;;;2.70;91.40;;;;;;7384257;19;20138;-72
2022/03/08 01:35:46;;;;;;;12.43;8.10;;;2.80;91.30;;;;;;7384632;19;20158;-72
2022/03/08 01:38:12;;;;;;;12.00;8.37;;;3.00;91.00;;;;;;7385261;19;20119;-72
2022/03/08 01:40:38;;;;;;;10.37;7.83;;;2.70;91.10;;;;;;7388975;19;20142;-73
2022/03/08 01:43:04;;;;;;;11.27;7.07;;;2.80;91.40;;;;;;7381958;19;20141;-72
2022/03/08 01:45:29;;;;;;;11.97;7.43;;;2.80;91.10;;;;;;7385595;19;20127;-72
2022/03/08 01:47:55;;;;;;;12.33;8.30;;;2.70;91.50;;;;;;7384289;19;20609;-72
2022/03/08 01:50:21;;;;;;;13.23;8.60;;;3.00;91.10;;;;;;7383259;19;20214;-72
2022/03/08 01:52:48;;;;;;;10.27;6.90;;;2.80;91.00;;;;;;7383320;19;20640;-71
2022/03/08 01:55:15;;;;;;;13.43;7.93;;;2.60;91.70;;;;;;7383345;19;20610;-71
2022/03/08 01:57:43;;;;;;;10.77;7.17;;;3.00;91.50;;;;;;7382147;19;20150;-72
2022/03/08 02:00:13;;;;;;;9.70;6.97;;;3.10;91.00;;;;;;7385127;19;20653;-72
2022/03/08 02:02:42;;;;;;;10.70;7.37;;;2.90;91.00;;;;;;7384205;19;20486;-72
2022/03/08 02:05:09;;;;;;;11.03;7.30;;;2.70;91.30;;;;;;7386804;19;20154;-71
2022/03/08 02:07:35;;;;;;;10.53;6.70;;;2.50;91.60;;;;;;7383880;19;20135;-71
2022/03/08 02:10:01;;;;;;;12.73;8.00;;;2.30;91.90;;;;;;7383519;19;20179;-71
2022/03/08 02:12:27;;;;;;;10.87;7.63;;;2.40;92.10;;;;;;7385285;19;20138;-72
2022/03/08 02:14:53;;;;;;;12.83;7.70;;;2.10;92.20;;;;;;7395140;19;20133;-72
2022/03/08 02:17:18;;;;;;;11.60;7.47;;;2.00;92.40;;;;;;7389294;19;20139;-71
2022/03/08 02:19:44;;;;;;;10.33;7.43;;;2.20;92.60;;;;;;7390649;19;20142;-72
2022/03/08 02:22:10;;;;;;;11.47;8.07;;;2.10;92.60;;;;;;7390145;19;20153;-72
2022/03/08 02:24:36;;;;;;;13.77;7.23;;;2.40;92.50;;;;;;7390720;19;20127;-71
2022/03/08 02:27:02;;;;;;;12.47;6.93;;;2.10;92.40;;;;;;7389650;19;20586;-72
2022/03/08 02:29:28;;;;;;;14.40;8.27;;;1.90;92.80;;;;;;7385728;19;20646;-72
2022/03/08 02:31:55;;;;;;;11.43;7.33;;;1.90;92.90;;;;;;7388604;19;20154;-71
2022/03/08 02:34:21;;;;;;;15.10;7.30;;;1.90;92.80;;;;;;7391220;19;20130;-72
2022/03/08 02:37:04;;;;;;;10.83;7.47;;;1.80;93.00;;;;;;7390808;19;20236;-71
2022/03/08 02:39:30;;;;;;;11.90;6.83;;;1.80;93.10;;;;;;7390651;19;20479;-71
2022/03/08 02:41:56;;;;;;;10.53;6.57;;;1.80;93.20;;;;;;7389808;19;20131;-71
2022/03/08 02:44:24;;;;;;;14.83;7.53;;;1.60;93.20;;;;;;7392394;19;20145;-72
2022/03/08 02:46:51;;;;;;;12.80;7.43;;;1.70;93.70;;;;;;7388637;19;20507;-70
2022/03/08 02:49:17;;;;;;;11.97;7.70;;;1.70;93.30;;;;;;7389265;19;20149;-71
2022/03/08 02:51:42;;;;;;;11.23;6.77;;;1.80;93.50;;;;;;7391395;19;20135;-72
2022/03/08 02:54:08;;;;;;;12.10;7.53;;;1.80;93.30;;;;;;7388803;19;20681;-72
2022/03/08 02:56:34;;;;;;;14.03;7.80;;;2.00;93.40;;;;;;7388389;19;20147;-71
2022/03/08 02:59:00;;;;;;;12.40;6.80;;;2.40;93.00;;;;;;7389337;19;20575;-71
2022/03/08 03:01:26;;;;;;;11.83;6.67;;;2.60;92.80;;;;;;7387809;19;20130;-71
2022/03/08 03:03:52;;;;;;;12.53;7.37;;;2.10;93.10;;;;;;7390603;19;20130;-71
2022/03/08 03:06:18;;;;;;;11.83;7.93;;;2.00;93.40;;;;;;7387796;19;20150;-71
2022/03/08 03:08:43;;;;;;;12.50;7.63;;;1.90;93.40;;;;;;7391291;19;20134;-72
2022/03/08 03:11:09;;;;;;;12.37;8.03;;;2.20;93.50;;;;;;7388824;19;20202;-72
2022/03/08 03:13:35;;;;;;;14.07;8.53;;;2.30;93.20;;;;;;7388585;19;20170;-71
2022/03/08 03:16:01;;;;;;;12.67;7.90;;;2.20;93.30;;;;;;7389896;19;20485;-72
2022/03/08 03:18:27;;;;;;;13.17;7.80;;;2.10;93.30;;;;;;7390048;19;20493;-71
2022/03/08 03:20:52;;;;;;;12.20;7.60;;;1.90;93.50;;;;;;7389907;19;20127;-71
2022/03/08 03:23:18;;;;;;;14.57;7.57;;;1.70;93.80;;;;;;7389648;19;20667;-70
2022/03/08 03:25:44;;;;;;;15.47;7.53;;;1.60;94.20;;;;;;7386431;19;20212;-71
2022/03/08 03:28:10;;;;;;;13.03;7.60;;;1.50;94.20;;;;;;7386074;19;20185;-70
2022/03/08 03:30:35;;;;;;;10.63;7.10;;;1.50;94.50;;;;;;7387862;19;20138;-71
2022/03/08 03:33:03;;;;;;;11.90;7.53;;;1.90;94.30;;;;;;7389851;19;20149;-71
2022/03/08 03:35:30;;;;;;;18.77;7.80;;;1.90;94.00;;;;;;7390100;19;20138;-71
2022/03/08 03:37:55;;;;;;;10.97;7.03;;;1.70;94.20;;;;;;7387134;19;20127;-71
2022/03/08 03:40:21;;;;;;;13.53;7.37;;;1.90;94.20;;;;;;7388197;19;20597;-71
2022/03/08 03:42:47;;;;;;;11.60;7.50;;;1.90;94.00;;;;;;7387496;19;20139;-72
2022/03/08 03:45:13;;;;;;;12.57;7.57;;;1.70;94.20;;;;;;7389527;19;20137;-72
2022/03/08 03:47:40;;;;;;;10.83;7.23;;;1.70;94.40;;;;;;7389655;19;20721;-71
2022/03/08 03:50:08;;;;;;;12.87;7.57;;;1.60;94.40;;;;;;7392917;19;20145;-70
2022/03/08 03:52:34;;;;;;;11.83;6.97;;;1.40;94.60;;;;;;7388595;19;20151;-71
2022/03/08 03:54:59;;;;;;;9.83;6.77;;;1.30;95.10;;;;;;7387094;19;20127;-72
2022/03/08 03:57:25;;;;;;;12.27;7.57;;;1.40;95.20;;;;;;7387576;19;20473;-71
2022/03/08 03:59:51;;;;;;;11.77;6.87;;;1.40;95.10;;;;;;7387572;19;20622;-72
2022/03/08 04:02:17;;;;;;;14.13;7.73;;;1.70;94.90;;;;;;7388530;19;20135;-71
2022/03/08 04:04:43;;;;;;;14.20;7.60;;;1.80;94.40;;;;;;7387625;19;20221;-72
2022/03/08 04:07:08;;;;;;;10.87;6.47;;;1.70;94.60;;;;;;7385585;19;20198;-71
2022/03/08 04:09:35;;;;;;;11.53;7.10;;;1.50;94.60;;;;;;7392639;19;20214;-71
2022/03/08 04:12:00;;;;;;;12.27;6.87;;;1.50;94.80;;;;;;7389225;19;20987;-70
2022/03/08 04:14:26;;;;;;;9.97;7.23;;;1.50;94.70;;;;;;7386308;19;20126;-71
2022/03/08 04:16:53;;;;;;;12.80;6.97;;;1.60;94.80;;;;;;7390403;19;20462;-72
2022/03/08 04:19:19;;;;;;;10.77;7.00;;;1.90;94.10;;;;;;7388954;19;20151;-73
2022/03/08 04:21:44;;;;;;;9.50;6.27;;;1.70;94.00;;;;;;7390161;19;20155;-72
2022/03/08 04:24:10;;;;;;;9.70;5.80;;;1.60;94.00;;;;;;7385824;19;20204;-72
2022/03/08 04:26:36;;;;;;;11.20;7.27;;;1.70;94.00;;;;;;7386096;19;20212;-71
2022/03/08 04:29:02;;;;;;;9.90;6.03;;;2.00;94.00;;;;;;7386644;19;20193;-71
2022/03/08 04:31:28;;;;;;;12.47;6.93;;;2.30;93.30;;;;;;7389846;19;20146;-71
2022/03/08 04:33:53;;;;;;;11.73;7.00;;;2.40;93.10;;;;;;7385413;19;20466;-71
2022/03/08 04:36:19;;;;;;;11.70;6.70;;;2.50;93.10;;;;;;7384751;19;20157;-71
2022/03/08 04:38:45;;;;;;;9.90;6.03;;;2.60;92.80;;;;;;7387422;19;20562;-71
2022/03/08 04:41:11;;;;;;;11.20;6.93;;;2.50;92.80;;;;;;7384861;19;20139;-71
2022/03/08 04:43:36;;;;;;;13.30;7.07;;;2.60;92.70;;;;;;7388781;19;20131;-71
2022/03/08 04:46:02;;;;;;;10.70;6.50;;;2.50;92.80;;;;;;7384573;19;20857;-71
2022/03/08 04:48:28;;;;;;;11.77;6.57;;;2.40;93.10;;;;;;7385353;19;20485;-70
2022/03/08 04:50:54;;;;;;;10.83;6.30;;;2.30;93.30;;;;;;7384505;19;20143;-71
2022/03/08 04:53:19;;;;;;;11.70;6.73;;;2.40;93.30;;;;;;7389374;19;20135;-71
2022/03/08 04:55:45;;;;;;;12.37;6.77;;;2.40;93.30;;;;;;7384843;19;20137;-71
2022/03/08 04:58:11;;;;;;;11.17;6.97;;;2.30;93.40;;;;;;7384487;19;20134;-72
2022/03/08 05:00:37;;;;;;;10.63;6.90;;;2.30;93.40;;;;;;7384547;19;20158;-71
2022/03/08 05:03:03;;;;;;;9.50;6.30;;;2.00;93.40;;;;;;7383605;19;20153;-70
2022/03/08 05:05:32;;;;;;;9.90;6.80;;;1.70;93.60;;;;;;7384360;19;20145;-71
2022/03/08 05:07:59;;;;;;;8.50;6.60;;;1.90;93.90;;;;;;7387034;19;20580;-71
2022/03/08 05:10:26;;;;;;;9.47;6.50;;;2.00;93.70;;;;;;7384299;19;20146;-72
2022/03/08 05:12:52;;;;;;;10.27;6.13;;;2.00;93.70;;;;;;7384442;19;20190;-70
2022/03/08 05:15:18;;;;;;;10.40;6.87;;;1.80;94.10;;;;;;7387403;19;20139;-71
2022/03/08 05:17:44;;;;;;;10.67;6.97;;;1.70;94.30;;;;;;7383879;19;20142;-71
2022/03/08 05:20:10;;;;;;;9.63;6.17;;;1.80;94.30;;;;;;7384798;19;20131;-72
2022/03/08 05:22:36;;;;;;;12.73;7.23;;;1.60;95.00;;;;;;7384409;19;20130;-70
2022/03/08 05:25:03;;;;;;;9.83;6.60;;;1.30;95.10;;;;;;7384749;19;20143;-71
2022/03/08 05:27:29;;;;;;;12.70;7.10;;;1.10;95.30;;;;;;7385913;19;20149;-71
2022/03/08 05:29:55;;;;;;;13.63;6.90;;;1.00;95.80;;;;;;7387747;19;20514;-71
2022/03/08 05:32:21;;;;;;;10.10;6.30;;;0.90;96.10;;;;;;7387322;19;20142;-71
2022/03/08 05:34:46;;;;;;;10.97;6.67;;;0.90;96.30;;;;;;7388426;19;20146;-71
2022/03/08 05:37:12;;;;;;;10.33;6.60;;;1.00;96.40;;;;;;7383138;19;20636;-70
2022/03/08 05:39:38;;;;;;;9.60;7.20;;;0.90;96.60;;;;;;7384256;19;20634;-71
2022/03/08 05:42:04;;;;;;;9.17;6.67;;;0.90;96.60;;;;;;7382499;19;20133;-72
2022/03/08 05:44:30;;;;;;;9.37;6.53;;;0.90;96.50;;;;;;7389912;19;20661;-72
2022/03/08 05:46:56;;;;;;;10.00;6.93;;;1.10;96.70;;;;;;7385501;19;20151;-72
2022/03/08 05:49:22;;;;;;;10.33;6.77;;;1.20;96.40;;;;;;7385045;19;20127;-70
2022/03/08 05:51:49;;;;;;;11.07;6.67;;;1.00;96.70;;;;;;7383437;19;20154;-71
2022/03/08 05:54:14;;;;;;;9.03;6.63;;;1.00;96.90;;;;;;7389251;19;20169;-71
2022/03/08 05:56:40;;;;;;;16.17;6.97;;;1.10;96.70;;;;;;7384243;19;20123;-71
2022/03/08 05:59:06;;;;;;;13.80;6.77;;;1.10;96.60;;;;;;7383056;19;20261;-71
2022/03/08 06:01:32;;;;;;;10.17;6.43;;;1.10;96.70;;;;;;7382239;19;20160;-70
2022/03/08 06:03:59;;;;;;;11.30;7.27;;;1.10;96.80;;;;;;7383455;19;20151;-71
2022/03/08 06:06:24;;;;;;;13.57;6.97;;;1.10;96.80;;;;;;7384005;19;20130;-71
2022/03/08 06:08:50;;;;;;;10.77;6.90;;;1.00;97.00;;;;;;7387875;19;20650;-71
2022/03/08 06:11:16;;;;;;;11.67;7.23;;;1.50;96.40;;;;;;7384836;19;20624;-72
2022/03/08 06:13:42;;;;;;;9.73;6.43;;;2.00;95.20;;;;;;7382721;19;20139;-71
2022/03/08 06:16:08;;;;;;;12.97;6.20;;;2.30;94.50;;;;;;7382367;19;20150;-70
2022/03/08 06:18:34;;;;;;;9.93;6.13;;;2.30;93.70;;;;;;7383412;19;20566;-71
2022/03/08 06:20:59;;;;;;;9.53;5.87;;;2.40;93.50;;;;;;7382375;19;20123;-70
2022/03/08 06:23:25;;;;;;;11.40;6.63;;;2.40;93.40;;;;;;7387749;19;20139;-71
2022/03/08 06:25:51;;;;;;;8.67;6.07;;;2.50;93.30;;;;;;7381576;19;20131;-72
2022/03/08 06:28:17;;;;;;;9.33;5.90;;;2.50;92.90;;;;;;7380717;19;20182;-71
2022/03/08 06:30:43;;;;;;;8.20;5.60;;;2.20;93.30;;;;;;7382443;19;20227;-71
2022/03/08 06:33:10;;;;;;;9.23;6.10;;;2.20;93.80;;;;;;7385690;19;20861;-71
2022/03/08 06:35:36;;;;;;;11.23;6.50;;;2.40;93.30;;;;;;7384004;19;20131;-72
2022/03/08 06:38:02;;;;;;;11.60;6.17;;;2.40;93.20;;;;;;7384450;19;20591;-71
2022/03/08 06:40:27;;;;;;;8.70;5.17;;;2.30;93.40;;;;;;7382857;19;20622;-71
2022/03/08 06:42:53;;;;;;;10.00;6.23;;;2.30;93.60;;;;;;7379482;19;20139;-71
2022/03/08 06:45:19;;;;;;;11.13;6.50;;;2.40;93.60;;;;;;7382994;19;20610;-72
2022/03/08 06:47:45;;;;;;;10.87;6.43;;;2.50;93.60;;;;;;7380748;19;20563;-71
2022/03/08 06:50:11;;;;;;;12.30;6.50;;;2.40;93.60;;;;;;7386162;19;20142;-73
2022/03/08 06:52:37;;;;;;;10.70;6.60;;;2.30;93.70;;;;;;7385349;19;20145;-70
2022/03/08 06:55:03;;;;;;;11.53;7.40;;;2.40;93.80;;;;;;7384749;19;20149;-71
2022/03/08 06:57:30;;;;;;;16.00;6.67;;;2.40;93.90;;;;;;7385475;19;20146;-71
2022/03/08 06:59:56;;;;;;;10.03;6.57;;;2.50;93.70;;;;;;7391455;19;20139;-72
2022/03/08 07:02:22;;;;;;;10.57;6.57;;;2.30;94.00;;;;;;7388557;19;20127;-72
2022/03/08 07:04:47;;;;;;;10.13;5.67;;;2.00;94.80;;;;;;7390010;19;20138;-71
2022/03/08 07:07:13;;;;;;;9.90;6.23;;;2.10;95.10;;;;;;7387234;19;20131;-71
2022/03/08 07:09:39;;;;;;;8.83;6.30;;;2.30;94.90;;;;;;7392986;19;20138;-71
2022/03/08 07:12:05;;;;;;;13.00;6.20;;;2.40;94.60;;;;;;7391412;19;20139;-72
2022/03/08 07:14:31;;;;;;;12.03;5.97;;;2.40;94.50;;;;;;7393230;19;20138;-71
2022/03/08 07:16:57;;;;;;;10.23;5.87;;;2.10;94.50;;;;;;7390620;19;20735;-72
2022/03/08 07:19:23;;;;;;;11.83;6.70;;;2.10;94.40;;;;;;7389276;19;20154;-72
2022/03/08 07:21:48;;;;;;;9.73;5.53;;;2.00;94.70;;;;;;7388855;19;20144;-71
2022/03/08 07:24:15;;;;;;;8.70;5.50;;;1.90;94.70;;;;;;7388735;19;20279;-72
2022/03/08 07:26:41;;;;;;;9.00;6.10;;;2.10;94.70;;;;;;7387874;19;20504;-71
2022/03/08 07:29:07;;;;;;;9.13;6.20;;;2.40;94.50;;;;;;7385376;19;20665;-71
2022/03/08 07:31:33;;;;;;;9.23;6.00;;;2.20;94.20;;;;;;7388008;19;20202;-71
2022/03/08 07:33:59;;;;;;;13.27;6.63;;;2.20;94.70;;;;;;7388921;19;20586;-73
2022/03/08 07:36:26;;;;;;;10.27;6.40;;;2.30;94.40;;;;;;7388539;19;20138;-71
2022/03/08 07:38:52;;;;;;;9.60;5.83;;;2.60;94.20;;;;;;7389182;19;20213;-72
2022/03/08 07:41:18;;;;;;;10.23;6.20;;;2.80;93.70;;;;;;7387017;19;20180;-70
2022/03/08 07:43:44;;;;;;;10.10;5.83;;;3.00;93.40;;;;;;7389361;19;20126;-72
2022/03/08 07:46:09;;;;;;;9.63;6.13;;;3.10;93.20;;;;;;7386874;19;20115;-70
2022/03/08 07:48:36;;;;;;;9.27;5.93;;;2.80;93.40;;;;;;7386823;19;20139;-71
2022/03/08 07:51:03;;;;;;;8.83;5.23;;;2.40;94.00;;;;;;7387003;19;20140;-71
2022/03/08 07:53:29;;;;;;;8.93;5.27;;;2.50;94.40;;;;;;7389818;19;20553;-71
2022/03/08 07:55:54;;;;;;;12.33;5.33;;;2.80;94.00;;;;;;7386747;19;20126;-72
2022/03/08 07:58:23;;;;;;;11.00;5.27;;;3.10;93.00;;;;;;7387886;19;20814;-71
2022/03/08 08:00:50;;;;;;;8.43;5.37;;;3.30;92.60;;;;;;7385209;19;20205;-73
2022/03/08 08:03:15;;;;;;;8.37;4.77;;;3.00;93.10;;;;;;7384249;19;20131;-71
2022/03/08 08:05:41;;;;;;;8.53;5.43;;;3.20;92.80;;;;;;7386110;19;20176;-72
2022/03/08 08:08:07;;;;;;;8.17;4.83;;;3.50;92.40;;;;;;7387806;19;20142;-72
2022/03/08 08:10:34;;;;;;;9.10;5.00;;;3.60;92.10;;;;;;7386200;19;20227;-71
2022/03/08 08:13:00;;;;;;;8.47;5.00;;;3.70;91.80;;;;;;7386196;19;20134;-71
2022/03/08 08:15:26;;;;;;;12.97;5.20;;;3.80;91.90;;;;;;7386202;19;20138;-71
2022/03/08 08:17:52;;;;;;;7.23;5.10;;;3.90;91.70;;;;;;7387373;19;20144;-71
2022/03/08 08:20:18;;;;;;;7.33;4.43;;;4.00;91.70;;;;;;7387186;19;20139;-72
2022/03/08 08:22:44;;;;;;;9.53;5.13;;;4.00;91.60;;;;;;7384426;19;20220;-71
2022/03/08 08:25:10;;;;;;;7.97;5.10;;;3.90;92.20;;;;;;7385787;19;20146;-72
2022/03/08 08:27:40;;;;;;;6.37;4.63;;;3.90;92.60;;;;;;7383072;19;20174;-71
2022/03/08 08:30:07;;;;;;;8.17;5.13;;;4.00;92.30;;;;;;7385000;19;20149;-72
2022/03/08 08:32:33;;;;;;;9.93;5.10;;;4.20;91.80;;;;;;7385782;19;20143;-71
2022/03/08 08:34:59;;;;;;;6.70;4.53;;;4.40;91.60;;;;;;7388475;19;20154;-71
2022/03/08 08:37:25;;;;;;;6.83;5.30;;;4.50;91.40;;;;;;7386382;19;20548;-72
2022/03/08 08:39:51;;;;;;;7.80;5.20;;;4.60;91.30;;;;;;7385492;19;20206;-71
2022/03/08 08:42:17;;;;;;;8.57;5.10;;;4.60;91.20;;;;;;7385176;19;20147;-71
2022/03/08 08:44:42;;;;;;;9.47;4.77;;;4.40;91.30;;;;;;7389058;19;20206;-76
2022/03/08 08:47:08;;;;;;;7.30;4.50;;;4.50;91.70;;;;;;7384126;19;20111;-70
2022/03/08 08:49:34;;;;;;;5.87;4.20;;;4.60;91.60;;;;;;7385524;19;20137;-70
2022/03/08 08:52:00;;;;;;;7.43;4.03;;;4.90;91.30;;;;;;7385101;19;20229;-72
2022/03/08 08:54:25;;;;;;;5.10;3.53;;;5.00;91.10;;;;;;7385080;19;20166;-73
2022/03/08 08:56:51;;;;;;;4.63;3.93;;;5.00;91.10;;;;;;7384396;19;20476;-73
2022/03/08 08:59:17;;;;;;;5.10;3.50;;;4.90;90.90;;;;;;7384217;19;20145;-70
2022/03/08 09:01:43;;;;;;;5.33;3.70;;;5.10;91.10;;;;;;7383895;19;20142;-71
2022/03/08 09:04:09;;;;;;;6.23;3.57;;;5.30;91.00;;;;;;7385705;19;20131;-74
2022/03/08 09:06:35;;;;;;;7.00;3.57;;;5.40;90.70;;;;;;7384788;19;20620;-70
2022/03/08 09:09:01;;;;;;;6.13;3.90;;;5.60;90.30;;;;;;7388876;19;20177;-70
2022/03/08 09:11:28;;;;;;;4.20;3.40;;;5.70;90.20;;;;;;7384321;19;20130;-70
2022/03/08 09:13:56;;;;;;;10.57;3.80;;;5.80;90.20;;;;;;7384289;19;20135;-71
2022/03/08 09:16:22;;;;;;;5.63;3.20;;;5.70;89.70;;;;;;7385124;19;20134;-70
2022/03/08 09:18:48;;;;;;;5.63;3.60;;;5.80;89.80;;;;;;7384408;19;20226;-71
2022/03/08 09:21:14;;;;;;;6.03;4.13;;;5.90;90.20;;;;;;7383058;19;20672;-71
2022/03/08 09:23:41;;;;;;;5.50;3.47;;;6.10;89.40;;;;;;7382110;19;20139;-71
2022/03/08 09:26:08;;;;;;;5.20;3.77;;;6.20;89.20;;;;;;7384798;19;20135;-73
2022/03/08 09:28:33;;;;;;;4.33;3.30;;;6.30;88.80;;;;;;7384235;19;20238;-70
2022/03/08 09:30:59;;;;;;;4.57;3.23;;;6.40;88.60;;;;;;7383943;19;20511;-71
2022/03/08 09:33:26;;;;;;;6.47;3.70;;;6.50;88.10;;;;;;7383206;19;20222;-73
2022/03/08 09:35:52;;;;;;;6.37;4.10;;;6.60;86.80;;;;;;7382722;19;20149;-72
2022/03/08 09:38:18;;;;;;;4.93;3.40;;;6.50;86.90;;;;;;7383130;19;20161;-71
2022/03/08 09:40:44;;;;;;;6.30;3.37;;;6.70;86.50;;;;;;7382769;19;20250;-70
2022/03/08 09:43:10;;;;;;;5.17;3.17;;;6.70;86.60;;;;;;7383752;19;20122;-72
2022/03/08 09:45:36;;;;;;;4.47;3.10;;;7.00;87.70;;;;;;7383294;19;20152;-70
2022/03/08 09:48:03;;;;;;;4.93;3.40;;;7.30;88.30;;;;;;7382251;19;20131;-70
2022/03/08 09:50:29;;;;;;;5.97;3.30;;;7.80;89.00;;;;;;7383786;19;20638;-71
2022/03/08 09:52:57;;;;;;;5.33;3.40;;;8.10;83.50;;;;;;7384600;19;20249;-73
2022/03/08 09:55:25;;;;;;;4.87;3.30;;;7.80;82.80;;;;;;7383719;19;20150;-77
2022/03/08 09:57:52;;;;;;;4.93;3.10;;;7.90;84.00;;;;;;7384226;19;20229;-72
2022/03/08 10:00:21;;;;;;;4.77;3.20;;;7.90;83.30;;;;;;7384045;19;20471;-71
2022/03/08 10:02:58;;;;;;;4.60;3.60;;;7.90;82.60;;;;;;7381401;19;20171;-71
2022/03/08 10:05:43;;;;;;;6.70;3.93;;;8.00;83.40;;;;;;7382456;19;20149;-71
2022/03/08 10:08:21;;;;;;;5.17;3.70;;;7.90;82.60;;;;;;7384126;19;20137;-70
2022/03/08 10:10:52;;;;;;;4.10;3.13;;;7.80;81.70;;;;;;7383187;19;20126;-73
2022/03/08 10:13:20;;;;;;;5.63;3.40;;;7.60;82.50;;;;;;7384202;19;20142;-71
2022/03/08 10:16:02;;;;;;;4.80;3.50;;;7.80;82.30;;;;;;7381837;19;20167;-72
2022/03/08 10:18:33;;;;;;;4.53;3.00;;;7.90;81.40;;;;;;7383882;19;20137;-70
2022/03/08 10:20:59;;;;;;;3.63;2.60;;;7.90;81.30;;;;;;7381492;19;20532;-70
2022/03/08 10:23:25;;;;;;;5.00;3.03;;;7.70;79.90;;;;;;7379846;19;20139;-70
2022/03/08 10:25:51;;;;;;;5.10;3.20;;;7.60;80.60;;;;;;7381877;19;20147;-71
2022/03/08 10:28:17;;;;;;;5.03;3.40;;;7.80;80.60;;;;;;7380631;19;20192;-73
2022/03/08 10:30:43;;;;;;;3.93;3.00;;;7.90;80.00;;;;;;7382253;19;20219;-71
2022/03/08 10:33:09;;;;;;;5.17;3.37;;;7.90;80.00;;;;;;7384344;19;20135;-72
2022/03/08 10:35:40;;;;;;;3.80;2.90;;;7.90;79.70;;;;;;7389638;19;20180;-73
2022/03/08 10:38:08;;;;;;;5.20;3.37;;;8.00;79.40;;;;;;7389472;19;20151;-71
2022/03/08 10:40:35;;;;;;;4.43;2.73;;;8.00;78.70;;;;;;7389278;19;20555;-72
2022/03/08 10:43:07;;;;;;;5.17;2.90;;;7.90;78.50;;;;;;7387222;19;20521;-72
2022/03/08 10:45:36;;;;;;;9.83;3.17;;;8.10;78.60;;;;;;7388847;19;20844;-72
2022/03/08 10:48:06;;;;;;;4.17;2.90;;;8.40;77.50;;;;;;7388684;19;20141;-70
2022/03/08 10:50:34;;;;;;;4.13;2.80;;;8.40;77.90;;;;;;7389114;19;20231;-73
2022/03/08 10:53:01;;;;;;;5.13;3.30;;;8.60;76.90;;;;;;7391234;19;20146;-70
2022/03/08 10:55:34;;;;;;;4.83;2.50;;;8.70;76.60;;;;;;7388841;19;20155;-74
2022/03/08 10:58:05;;;;;;;3.17;2.57;;;8.50;76.30;;;;;;7388666;19;20217;-71
2022/03/08 11:00:32;;;;;;;4.83;3.03;;;8.50;76.60;;;;;;7390522;19;20143;-72
2022/03/08 11:03:01;;;;;;;3.47;2.67;;;8.60;75.40;;;;;;7386403;19;20149;-71
2022/03/08 11:05:30;;;;;;;6.53;3.13;;;8.50;76.10;;;;;;7387819;19;20131;-70
2022/03/08 11:07:57;;;;;;;3.70;2.43;;;8.60;76.10;;;;;;7387983;19;20619;-71
2022/03/08 11:10:24;;;;;;;3.83;2.50;;;8.70;75.80;;;;;;7388435;19;20154;-71
2022/03/08 11:12:50;;;;;;;3.83;2.80;;;8.70;75.10;;;;;;7389861;19;20126;-72
2022/03/08 11:15:19;;;;;;;3.37;2.57;;;8.80;75.20;;;;;;7388240;19;20622;-71
2022/03/08 11:17:47;;;;;;;5.73;3.77;;;9.10;74.70;;;;;;7386875;19;20478;-72
2022/03/08 11:20:17;;;;;;;4.27;2.63;;;9.10;73.40;;;;;;7387118;19;20185;-73
2022/03/08 11:22:44;;;;;;;4.27;2.60;;;8.90;72.20;;;;;;7382335;19;20144;-71
2022/03/08 11:25:18;;;;;;;3.53;2.70;;;8.90;73.00;;;;;;7386893;19;20466;-71
2022/03/08 11:27:46;;;;;;;3.00;2.50;;;9.00;73.40;;;;;;7385270;19;20170;-72
2022/03/08 11:30:16;;;;;;;4.67;3.10;;;9.10;72.60;;;;;;7387019;19;20143;-71
2022/03/08 11:32:49;;;;;;;4.70;3.00;;;9.20;72.70;;;;;;7387701;19;20456;-71
2022/03/08 11:35:24;;;;;;;4.20;2.70;;;9.40;72.30;;;;;;7389301;19;20594;-71
2022/03/08 11:37:51;;;;;;;4.30;2.53;;;9.40;71.40;;;;;;7386437;19;20130;-73
2022/03/08 11:40:19;;;;;;;5.23;2.60;;;9.30;71.20;;;;;;7388389;19;20157;-72
2022/03/08 11:42:46;;;;;;;3.23;2.77;;;9.50;71.20;;;;;;7385282;19;20230;-72
2022/03/08 11:45:18;;;;;;;2.80;2.40;;;9.60;70.70;;;;;;7384206;19;20504;-72
2022/03/08 11:47:51;;;;;;;5.23;3.23;;;9.60;69.70;;;;;;7384846;19;20149;-71
2022/03/08 11:50:24;;;;;;;3.10;2.33;;;9.60;69.50;;;;;;7387503;19;20641;-73
2022/03/08 11:53:14;;;;;;;4.67;2.70;;;9.60;69.80;;;;;;7388131;19;20569;-70
2022/03/08 11:55:50;;;;;;;3.07;2.40;;;9.60;70.00;;;;;;7388607;19;20574;-72
2022/03/08 11:58:19;;;;;;;7.97;3.30;;;9.60;69.20;;;;;;7387030;19;20476;-72
2022/03/08 12:00:49;;;;;;;3.57;2.60;;;9.60;69.40;;;;;;7387583;19;20487;-72
2022/03/08 12:03:24;;;;;;;5.00;3.23;;;9.60;70.20;;;;;;7385772;19;20185;-72
2022/03/08 12:06:02;;;;;;;3.93;2.60;;;9.70;70.00;;;;;;7387525;19;20133;-73
2022/03/08 12:08:28;;;;;;;3.57;2.40;;;9.70;69.80;;;;;;7388092;19;20135;-71
2022/03/08 12:11:00;;;;;;;3.67;3.00;;;9.80;69.60;;;;;;7388309;19;20483;-73
2022/03/08 12:13:55;;;;;;;5.30;3.37;;;9.80;70.00;;;;;;7388234;19;20130;-73
2022/03/08 12:16:26;;;;;;;5.10;3.07;;;10.10;69.90;;;;;;7385662;19;20166;-72
2022/03/08 12:18:57;;;;;;;4.57;3.40;;;10.10;69.40;;;;;;7386275;19;20147;-71
2022/03/08 12:21:27;;;;;;;4.60;3.20;;;10.10;69.20;;;;;;7385606;19;20134;-72
2022/03/08 12:24:02;;;;;;;4.73;3.37;;;10.10;70.30;;;;;;7387653;19;20506;-73
2022/03/08 12:26:36;;;;;;;5.27;3.33;;;10.10;70.20;;;;;;7387165;19;20133;-73
2022/03/08 12:29:11;;;;;;;5.37;3.30;;;10.30;69.30;;;;;;7383129;19;20189;-72
2022/03/08 12:32:06;;;;;;;4.40;3.13;;;10.30;68.80;;;;;;7386991;19;20138;-75
2022/03/08 12:34:36;;;;;;;4.27;3.20;;;10.30;69.80;;;;;;7385736;19;20158;-74
2022/03/08 12:37:30;;;;;;;4.00;3.10;;;10.40;68.00;;;;;;7384716;19;20500;-73
2022/03/08 12:40:01;;;;;;;8.13;4.50;;;10.40;68.60;;;;;;7385704;19;20126;-73
2022/03/08 12:42:33;;;;;;;5.33;4.13;;;10.30;68.60;;;;;;7384194;19;20524;-71
2022/03/08 12:45:13;;;;;;;4.63;3.07;;;10.20;68.20;;;;;;7391336;19;20143;-72
2022/03/08 12:47:59;;;;;;;4.13;3.10;;;10.60;67.90;;;;;;7384613;19;20142;-70
2022/03/08 12:50:25;;;;;;;3.70;2.93;;;10.70;67.20;;;;;;7384835;19;20135;-73